createdAt,value
2018-03-18T00:00:06.862Z,-3.00
2018-03-18T00:02:38.360Z,-2.90
2018-03-18T00:05:06.008Z,-3.10
2018-03-18T00:07:33.528Z,-3.10
2018-03-18T00:10:01.207Z,-3.20
2018-03-18T00:12:28.720Z,-3.30
2018-03-18T00:14:56.244Z,-3.10
2018-03-18T00:17:23.908Z,-3.10
2018-03-18T00:19:51.568Z,-3.20
2018-03-18T00:22:19.100Z,-3.20
2018-03-18T00:24:47.371Z,-3.10
2018-03-18T00:27:15.570Z,-3.20
2018-03-18T00:29:43.935Z,-3.20
2018-03-18T00:32:11.475Z,-3.20
2018-03-18T00:34:39.138Z,-3.20
2018-03-18T00:37:07.220Z,-3.20
2018-03-18T00:39:35.279Z,-3.20
2018-03-18T00:42:03.085Z,-3.30
2018-03-18T00:44:30.606Z,-3.50
2018-03-18T00:46:58.300Z,-3.30
2018-03-18T00:49:26.195Z,-3.40
2018-03-18T00:52:00.449Z,-3.50
2018-03-18T00:54:28.012Z,-3.60
2018-03-18T00:56:55.800Z,-3.50
2018-03-18T00:59:23.331Z,-3.50
2018-03-18T01:01:51.631Z,-3.50
2018-03-18T01:04:19.204Z,-3.60
2018-03-18T01:06:46.724Z,-3.50
2018-03-18T01:09:14.250Z,-3.40
2018-03-18T01:11:41.755Z,-3.40
2018-03-18T01:14:09.915Z,-3.30
2018-03-18T01:16:37.410Z,-3.30
2018-03-18T01:19:05.907Z,-3.40
2018-03-18T01:21:34.333Z,-3.50
2018-03-18T01:24:01.844Z,-3.50
2018-03-18T01:26:29.560Z,-3.50
2018-03-18T01:28:57.548Z,-3.50
2018-03-18T01:31:25.083Z,-3.50
2018-03-18T01:33:52.603Z,-3.40
2018-03-18T01:36:20.307Z,-3.30
2018-03-18T01:38:48.078Z,-3.50
2018-03-18T01:41:16.116Z,-3.70
2018-03-18T01:43:44.219Z,-3.50
2018-03-18T01:46:12.115Z,-3.80
2018-03-18T01:48:39.635Z,-3.80
2018-03-18T01:51:07.208Z,-3.80
2018-03-18T01:53:35.615Z,-3.80
2018-03-18T01:56:03.187Z,-3.70
2018-03-18T01:58:31.739Z,-3.60
2018-03-18T02:00:59.244Z,-3.50
2018-03-18T02:03:26.937Z,-3.70
2018-03-18T02:05:54.464Z,-3.60
2018-03-18T02:08:21.976Z,-3.70
2018-03-18T02:10:50.269Z,-3.70
2018-03-18T02:13:17.788Z,-3.60
2018-03-18T02:15:45.348Z,-3.60
2018-03-18T02:18:13.643Z,-3.60
2018-03-18T02:20:41.155Z,-3.60
2018-03-18T02:23:08.665Z,-3.70
2018-03-18T02:25:36.224Z,-3.80
2018-03-18T02:28:04.175Z,-3.70
2018-03-18T02:30:31.731Z,-3.60
2018-03-18T02:32:59.247Z,-3.50
2018-03-18T02:35:26.774Z,-3.50
2018-03-18T02:37:54.424Z,-3.50
2018-03-18T02:40:23.709Z,-3.60
2018-03-18T02:42:51.481Z,-3.60
2018-03-18T02:45:19.001Z,-3.50
2018-03-18T02:47:46.692Z,-3.50
2018-03-18T02:50:14.202Z,-3.70
2018-03-18T02:52:41.737Z,-3.50
2018-03-18T02:55:09.659Z,-3.70
2018-03-18T02:57:37.199Z,-3.70
2018-03-18T03:00:05.114Z,-3.70
2018-03-18T03:02:33.584Z,-3.70
2018-03-18T03:05:01.507Z,-3.70
2018-03-18T03:07:29.417Z,-3.70
2018-03-18T03:09:58.466Z,-3.70
2018-03-18T03:12:26.378Z,-3.60
2018-03-18T03:14:54.859Z,-3.50
2018-03-18T03:17:23.154Z,-3.50
2018-03-18T03:19:51.426Z,-3.50
2018-03-18T03:22:18.968Z,-3.70
2018-03-18T03:24:47.145Z,-3.60
2018-03-18T03:27:15.215Z,-3.80
2018-03-18T03:29:45.094Z,-3.80
2018-03-18T03:32:12.616Z,-3.70
2018-03-18T03:34:40.907Z,-3.70
2018-03-18T03:37:08.429Z,-3.90
2018-03-18T03:39:35.958Z,-3.90
2018-03-18T03:42:03.455Z,-3.90
2018-03-18T03:44:32.036Z,-4.10
2018-03-18T03:46:59.779Z,-4.10
2018-03-18T03:49:27.284Z,-4.10
2018-03-18T03:51:55.328Z,-4.10
2018-03-18T03:54:23.697Z,-4.00
2018-03-18T03:56:51.442Z,-4.00
2018-03-18T03:59:19.004Z,-4.00
2018-03-18T04:01:46.682Z,-3.90
2018-03-18T04:04:14.204Z,-3.80
2018-03-18T04:06:41.851Z,-3.80
2018-03-18T04:09:09.362Z,-3.90
2018-03-18T04:11:37.804Z,-4.10
2018-03-18T04:14:05.710Z,-4.00
2018-03-18T04:16:34.139Z,-4.00
2018-03-18T04:19:02.057Z,-4.00
2018-03-18T04:21:29.576Z,-3.90
2018-03-18T04:23:57.091Z,-4.10
2018-03-18T04:26:24.996Z,-4.00
2018-03-18T04:28:52.504Z,-4.10
2018-03-18T04:31:20.797Z,-4.00
2018-03-18T04:33:48.304Z,-3.90
2018-03-18T04:36:15.835Z,-3.90
2018-03-18T04:38:43.432Z,-3.90
2018-03-18T04:41:11.195Z,-4.00
2018-03-18T04:43:38.960Z,-3.90
2018-03-18T04:46:06.707Z,-4.00
2018-03-18T04:48:34.245Z,-4.10
2018-03-18T04:51:01.958Z,-4.30
2018-03-18T04:53:29.467Z,-4.40
2018-03-18T04:55:57.155Z,-4.30
2018-03-18T04:58:24.663Z,-4.40
2018-03-18T05:00:52.352Z,-4.30
2018-03-18T05:03:19.879Z,-4.30
2018-03-18T05:05:47.787Z,-4.40
2018-03-18T05:08:15.347Z,-4.50
2018-03-18T05:10:43.477Z,-4.50
2018-03-18T05:13:11.192Z,-4.50
2018-03-18T05:15:39.395Z,-4.40
2018-03-18T05:18:08.065Z,-4.40
2018-03-18T05:20:35.592Z,-4.30
2018-03-18T05:23:03.094Z,-4.20
2018-03-18T05:25:30.638Z,-4.10
2018-03-18T05:27:59.322Z,-4.20
2018-03-18T05:30:27.072Z,-4.40
2018-03-18T05:32:54.587Z,-4.40
2018-03-18T05:35:22.276Z,-4.30
2018-03-18T05:37:50.197Z,-4.20
2018-03-18T05:40:17.844Z,-4.20
2018-03-18T05:42:45.467Z,-4.10
2018-03-18T05:45:12.978Z,-4.10
2018-03-18T05:47:41.128Z,-4.10
2018-03-18T05:50:09.157Z,-4.40
2018-03-18T05:52:36.680Z,-4.40
2018-03-18T05:55:04.991Z,-4.40
2018-03-18T05:57:32.517Z,-4.30
2018-03-18T06:00:00.263Z,-4.10
2018-03-18T06:02:27.854Z,-4.10
2018-03-18T06:04:55.752Z,-4.10
2018-03-18T06:07:23.260Z,-4.10
2018-03-18T06:09:51.062Z,-4.20
2018-03-18T06:12:19.989Z,-4.40
2018-03-18T06:14:47.900Z,-4.20
2018-03-18T06:17:15.478Z,-3.90
2018-03-18T06:19:43.756Z,-3.90
2018-03-18T06:22:11.346Z,-3.80
2018-03-18T06:24:38.871Z,-3.80
2018-03-18T06:27:06.555Z,-3.80
2018-03-18T06:29:34.331Z,-3.90
2018-03-18T06:32:01.872Z,-3.90
2018-03-18T06:34:29.528Z,-3.90
2018-03-18T06:36:57.055Z,-3.80
2018-03-18T06:39:24.568Z,-3.70
2018-03-18T06:41:52.502Z,-3.80
2018-03-18T06:44:20.299Z,-3.90
2018-03-18T06:46:48.334Z,-3.90
2018-03-18T06:49:16.136Z,-3.70
2018-03-18T06:51:43.880Z,-3.60
2018-03-18T06:54:11.815Z,-3.60
2018-03-18T06:56:40.040Z,-3.70
2018-03-18T06:59:07.563Z,-3.90
2018-03-18T07:01:35.309Z,-3.80
2018-03-18T07:04:03.375Z,-3.60
2018-03-18T07:06:31.276Z,-3.60
2018-03-18T07:08:58.847Z,-3.70
2018-03-18T07:11:26.603Z,-3.40
2018-03-18T07:13:54.388Z,-3.40
2018-03-18T07:16:23.684Z,-3.60
2018-03-18T07:18:51.206Z,-3.50
2018-03-18T07:21:19.309Z,-3.40
2018-03-18T07:23:47.255Z,-3.50
2018-03-18T07:26:15.030Z,-3.20
2018-03-18T07:28:43.592Z,-3.20
2018-03-18T07:31:11.504Z,-3.30
2018-03-18T07:33:39.256Z,-3.20
2018-03-18T07:36:07.029Z,-3.10
2018-03-18T07:38:34.967Z,-3.10
2018-03-18T07:41:02.545Z,-3.00
2018-03-18T07:43:30.611Z,-2.90
2018-03-18T07:45:58.384Z,-2.90
2018-03-18T07:48:25.918Z,-2.90
2018-03-18T07:50:53.566Z,-2.90
2018-03-18T07:53:21.523Z,-2.70
2018-03-18T07:55:49.003Z,-2.80
2018-03-18T07:58:16.554Z,-2.70
2018-03-18T08:00:44.061Z,-2.40
2018-03-18T08:03:11.771Z,-2.40
2018-03-18T08:05:39.279Z,-2.30
2018-03-18T08:08:07.116Z,-2.30
2018-03-18T08:10:34.652Z,-2.50
2018-03-18T08:13:02.244Z,-2.20
2018-03-18T08:15:31.259Z,-2.30
2018-03-18T08:17:58.780Z,-2.20
2018-03-18T08:20:26.449Z,-2.20
2018-03-18T08:22:54.527Z,-2.30
2018-03-18T08:25:22.056Z,-2.30
2018-03-18T08:27:49.740Z,-2.20
2018-03-18T08:30:17.644Z,-2.20
2018-03-18T08:32:45.579Z,-2.20
2018-03-18T08:35:13.095Z,-2.30
2018-03-18T08:37:40.791Z,-2.30
2018-03-18T08:40:08.320Z,-2.10
2018-03-18T08:42:36.238Z,-2.00
2018-03-18T08:45:03.797Z,-1.90
2018-03-18T08:47:31.718Z,-1.80
2018-03-18T08:49:59.237Z,-1.70
2018-03-18T08:52:26.769Z,-1.70
2018-03-18T08:54:54.527Z,-1.60
2018-03-18T08:57:22.087Z,-1.50
2018-03-18T08:59:49.598Z,-1.30
2018-03-18T09:02:17.120Z,-1.30
2018-03-18T09:04:44.643Z,-0.70
2018-03-18T09:07:12.148Z,0.00
2018-03-18T09:09:39.827Z,1.00
2018-03-18T09:12:07.387Z,0.70
2018-03-18T09:14:34.908Z,0.00
2018-03-18T09:17:02.432Z,-0.60
2018-03-18T09:19:30.724Z,-0.50
2018-03-18T09:21:59.544Z,-0.70
2018-03-18T09:24:27.078Z,-0.80
2018-03-18T09:26:54.835Z,-1.00
2018-03-18T09:29:22.373Z,-0.90
2018-03-18T09:31:50.715Z,-0.90
2018-03-18T09:34:18.433Z,-0.90
2018-03-18T09:36:46.664Z,-0.80
2018-03-18T09:39:14.187Z,-0.60
2018-03-18T09:41:41.711Z,-0.50
2018-03-18T09:44:10.019Z,-0.70
2018-03-18T09:46:38.383Z,-0.70
2018-03-18T09:49:05.945Z,-0.60
2018-03-18T09:51:34.951Z,0.90
2018-03-18T09:54:03.030Z,1.30
2018-03-18T09:56:30.987Z,1.00
2018-03-18T09:58:59.179Z,1.30
2018-03-18T10:01:26.899Z,1.70
2018-03-18T10:03:54.411Z,2.70
2018-03-18T10:06:22.027Z,2.80
2018-03-18T10:08:49.603Z,2.80
2018-03-18T10:11:17.094Z,0.70
2018-03-18T10:13:45.594Z,0.70
2018-03-18T10:16:13.112Z,0.30
2018-03-18T10:18:41.382Z,-0.20
2018-03-18T10:21:08.904Z,-0.10
2018-03-18T10:23:36.646Z,-0.10
2018-03-18T10:26:04.155Z,-0.10
2018-03-18T10:28:31.694Z,-0.20
2018-03-18T10:31:00.716Z,-0.20
2018-03-18T10:33:28.464Z,0.00
2018-03-18T10:35:57.587Z,0.00
2018-03-18T10:38:25.519Z,0.00
2018-03-18T10:40:53.899Z,-0.10
2018-03-18T10:43:21.418Z,0.00
2018-03-18T10:45:49.013Z,0.00
2018-03-18T10:48:16.870Z,0.20
2018-03-18T10:50:44.363Z,0.30
2018-03-18T10:53:12.087Z,0.40
2018-03-18T10:55:39.601Z,0.50
2018-03-18T10:58:07.087Z,0.50
2018-03-18T11:00:40.299Z,0.50
2018-03-18T11:03:07.806Z,0.40
2018-03-18T11:05:35.530Z,0.40
2018-03-18T11:08:03.007Z,0.60
2018-03-18T11:10:30.731Z,0.70
2018-03-18T11:12:58.215Z,0.70
2018-03-18T11:15:25.734Z,0.80
2018-03-18T11:17:53.238Z,0.80
2018-03-18T11:20:21.139Z,1.30
2018-03-18T11:22:49.028Z,1.20
2018-03-18T11:25:16.531Z,2.50
2018-03-18T11:27:44.169Z,2.80
2018-03-18T11:30:11.729Z,2.50
2018-03-18T11:32:39.337Z,1.30
2018-03-18T11:35:07.152Z,0.90
2018-03-18T11:37:34.722Z,0.70
2018-03-18T11:40:02.393Z,0.80
2018-03-18T11:42:29.902Z,0.80
2018-03-18T11:44:57.399Z,0.80
2018-03-18T11:47:25.048Z,0.80
2018-03-18T11:49:54.865Z,1.00
2018-03-18T11:52:22.425Z,1.00
2018-03-18T11:54:49.923Z,0.90
2018-03-18T11:57:17.687Z,1.00
2018-03-18T11:59:45.190Z,1.10
2018-03-18T12:02:12.722Z,1.00
2018-03-18T12:04:40.215Z,1.10
2018-03-18T12:07:07.712Z,1.10
2018-03-18T12:09:35.444Z,1.10
2018-03-18T12:12:02.931Z,1.20
2018-03-18T12:14:30.420Z,1.10
2018-03-18T12:16:58.908Z,1.20
2018-03-18T12:19:26.429Z,1.00
2018-03-18T12:21:53.909Z,1.10
2018-03-18T12:24:21.404Z,1.30
2018-03-18T12:26:48.948Z,1.30
2018-03-18T12:29:16.464Z,1.50
2018-03-18T12:31:44.328Z,1.60
2018-03-18T12:34:11.936Z,1.60
2018-03-18T12:36:39.636Z,1.80
2018-03-18T12:39:07.188Z,1.70
2018-03-18T12:41:34.651Z,1.70
2018-03-18T12:44:02.376Z,1.40
2018-03-18T12:46:29.880Z,1.50
2018-03-18T12:48:57.395Z,1.40
2018-03-18T12:51:25.360Z,1.40
2018-03-18T12:53:53.152Z,1.40
2018-03-18T12:56:21.522Z,1.40
2018-03-18T12:58:49.020Z,1.30
2018-03-18T13:01:16.720Z,1.30
2018-03-18T13:03:44.217Z,1.50
2018-03-18T13:06:11.860Z,1.50
2018-03-18T13:08:39.352Z,1.70
2018-03-18T13:11:06.861Z,1.70
2018-03-18T13:13:34.618Z,1.60
2018-03-18T13:16:02.131Z,1.30
2018-03-18T13:18:29.629Z,1.10
2018-03-18T13:20:57.304Z,1.20
2018-03-18T13:23:25.076Z,1.20
2018-03-18T13:25:52.821Z,1.10
2018-03-18T13:28:20.372Z,0.90
2018-03-18T13:30:48.318Z,1.10
2018-03-18T13:33:17.673Z,1.20
2018-03-18T13:35:45.407Z,1.20
2018-03-18T13:38:12.915Z,1.20
2018-03-18T13:40:40.412Z,1.30
2018-03-18T13:43:07.899Z,1.40
2018-03-18T13:45:35.395Z,1.20
2018-03-18T13:48:02.910Z,1.00
2018-03-18T13:50:30.413Z,0.90
2018-03-18T13:52:57.920Z,1.00
2018-03-18T13:55:25.619Z,1.10
2018-03-18T13:57:53.138Z,1.00
2018-03-18T14:00:20.664Z,1.10
2018-03-18T14:02:49.023Z,1.00
2018-03-18T14:05:16.714Z,1.00
2018-03-18T14:07:44.224Z,1.10
2018-03-18T14:10:11.723Z,1.20
2018-03-18T14:12:39.227Z,1.10
2018-03-18T14:15:06.858Z,1.10
2018-03-18T14:17:34.655Z,1.10
2018-03-18T14:20:02.158Z,1.00
2018-03-18T14:22:29.843Z,1.20
2018-03-18T14:24:57.350Z,1.20
2018-03-18T14:27:25.068Z,1.40
2018-03-18T14:29:52.580Z,1.40
2018-03-18T14:32:20.346Z,1.40
2018-03-18T14:34:48.459Z,1.60
2018-03-18T14:37:16.093Z,1.60
2018-03-18T14:39:44.209Z,1.30
2018-03-18T14:42:11.707Z,1.80
2018-03-18T14:44:39.374Z,1.90
2018-03-18T14:47:07.202Z,2.10
2018-03-18T14:49:34.932Z,2.50
2018-03-18T14:52:02.440Z,3.00
2018-03-18T14:54:30.344Z,3.40
2018-03-18T14:56:57.976Z,2.70
2018-03-18T14:59:25.871Z,2.90
2018-03-18T15:01:53.443Z,2.60
2018-03-18T15:04:20.951Z,2.90
2018-03-18T15:06:48.660Z,2.80
2018-03-18T15:09:16.435Z,2.40
2018-03-18T15:11:43.933Z,2.70
2018-03-18T15:14:11.650Z,2.20
2018-03-18T15:16:39.132Z,1.50
2018-03-18T15:19:07.195Z,1.30
2018-03-18T15:21:34.959Z,1.00
2018-03-18T15:24:04.551Z,0.70
2018-03-18T15:26:32.324Z,0.90
2018-03-18T15:29:00.183Z,1.00
2018-03-18T15:31:27.852Z,1.00
2018-03-18T15:33:55.371Z,1.20
2018-03-18T15:36:22.865Z,1.20
2018-03-18T15:38:50.835Z,1.00
2018-03-18T15:41:18.465Z,0.80
2018-03-18T15:43:46.083Z,0.80
2018-03-18T15:46:13.559Z,1.50
2018-03-18T15:48:41.087Z,2.60
2018-03-18T15:51:08.592Z,2.90
2018-03-18T15:53:36.153Z,3.30
2018-03-18T15:56:03.667Z,3.30
2018-03-18T15:58:31.166Z,3.30
2018-03-18T16:00:58.906Z,3.20
2018-03-18T16:03:28.171Z,2.30
2018-03-18T16:05:55.924Z,1.90
2018-03-18T16:08:23.420Z,1.90
2018-03-18T16:10:51.114Z,1.20
2018-03-18T16:13:18.607Z,0.90
2018-03-18T16:15:46.128Z,0.90
2018-03-18T16:18:13.616Z,0.80
2018-03-18T16:20:41.125Z,0.60
2018-03-18T16:23:08.640Z,0.60
2018-03-18T16:25:36.535Z,0.70
2018-03-18T16:28:04.544Z,0.80
2018-03-18T16:33:34.440Z,0.50
2018-03-18T16:36:01.953Z,0.50
2018-03-18T16:38:29.440Z,0.40
2018-03-18T16:40:56.972Z,0.40
2018-03-18T16:43:24.476Z,0.40
2018-03-18T16:45:52.751Z,0.40
2018-03-18T16:48:20.643Z,0.30
2018-03-18T16:50:48.556Z,0.80
2018-03-18T16:53:16.063Z,1.40
2018-03-18T16:55:43.563Z,1.40
2018-03-18T16:58:11.052Z,2.10
2018-03-18T17:00:39.599Z,1.70
2018-03-18T17:03:07.134Z,1.20
2018-03-18T17:05:34.656Z,0.70
2018-03-18T17:08:02.272Z,0.60
2018-03-18T17:10:29.759Z,0.40
2018-03-18T17:12:58.105Z,0.20
2018-03-18T17:15:25.594Z,0.30
2018-03-18T17:17:53.668Z,0.20
2018-03-18T17:20:21.109Z,0.00
2018-03-18T17:22:49.170Z,0.00
2018-03-18T17:25:17.059Z,0.00
2018-03-18T17:27:45.349Z,-0.10
2018-03-18T17:30:12.868Z,0.00
2018-03-18T17:32:40.523Z,-0.10
2018-03-18T17:35:08.039Z,-0.20
2018-03-18T17:37:35.539Z,-0.10
2018-03-18T17:40:03.206Z,-0.30
2018-03-18T17:42:30.982Z,-0.40
2018-03-18T17:45:11.143Z,0.40
2018-03-18T17:47:51.378Z,1.30
2018-03-18T17:50:25.456Z,0.20
2018-03-18T17:53:05.042Z,-0.10
2018-03-18T17:55:33.062Z,-0.40
2018-03-18T17:58:01.204Z,-0.30
2018-03-18T18:00:28.897Z,-0.40
2018-03-18T18:02:56.434Z,-0.50
2018-03-18T18:05:24.167Z,-0.70
2018-03-18T18:07:52.451Z,-0.80
2018-03-18T18:10:19.994Z,-0.70
2018-03-18T18:12:48.356Z,-0.70
2018-03-18T18:15:15.888Z,-0.80
2018-03-18T18:17:43.412Z,-0.50
2018-03-18T18:20:11.688Z,-0.70
2018-03-18T18:22:39.425Z,-0.60
2018-03-18T18:25:06.969Z,-0.50
2018-03-18T18:27:34.632Z,-0.60
2018-03-18T18:30:02.161Z,-0.50
2018-03-18T18:32:29.679Z,-0.70
2018-03-18T18:34:58.230Z,-0.70
2018-03-18T18:37:26.128Z,-0.60
2018-03-18T18:39:54.524Z,-0.60
2018-03-18T18:42:22.426Z,-0.80
2018-03-18T18:44:50.488Z,-0.70
2018-03-18T18:47:18.011Z,-0.80
2018-03-18T18:49:45.543Z,-0.80
2018-03-18T18:52:13.039Z,-0.70
2018-03-18T18:54:40.641Z,-0.70
2018-03-18T18:57:08.175Z,-0.60
2018-03-18T18:59:35.688Z,-0.80
2018-03-18T19:02:03.435Z,-0.80
2018-03-18T19:04:30.968Z,-0.80
2018-03-18T19:06:59.716Z,-0.90
2018-03-18T19:09:27.672Z,-0.80
2018-03-18T19:11:55.235Z,-0.90
2018-03-18T19:14:23.214Z,-0.90
2018-03-18T19:16:51.685Z,-1.00
2018-03-18T19:19:19.200Z,-0.90
2018-03-18T19:21:46.722Z,-1.00
2018-03-18T19:24:14.424Z,-1.00
2018-03-18T19:26:41.980Z,-1.10
2018-03-18T19:29:09.640Z,-1.20
2018-03-18T19:31:37.170Z,-1.00
2018-03-18T19:34:04.683Z,-1.00
2018-03-18T19:36:32.318Z,-1.00
2018-03-18T19:39:00.418Z,-0.90
2018-03-18T19:41:28.995Z,-0.90
2018-03-18T19:43:56.530Z,-0.90
2018-03-18T19:46:24.304Z,-0.80
2018-03-18T19:48:52.047Z,-0.90
2018-03-18T19:51:19.563Z,-1.10
2018-03-18T19:53:47.895Z,-1.20
2018-03-18T19:56:15.427Z,-1.00
2018-03-18T19:58:44.061Z,-1.00
2018-03-18T20:01:11.682Z,-1.00
2018-03-18T20:03:39.532Z,-1.10
2018-03-18T20:06:07.092Z,-1.10
2018-03-18T20:08:34.795Z,-1.10
2018-03-18T20:11:02.547Z,-1.20
2018-03-18T20:13:30.308Z,-1.20
2018-03-18T20:15:58.072Z,-1.30
2018-03-18T20:18:25.794Z,-1.20
2018-03-18T20:20:53.599Z,-1.00
2018-03-18T20:23:22.596Z,-1.10
2018-03-18T20:25:50.369Z,-1.20
2018-03-18T20:28:18.120Z,-1.20
2018-03-18T20:30:45.848Z,-1.40
2018-03-18T20:33:13.478Z,-1.40
2018-03-18T20:35:42.982Z,-1.30
2018-03-18T20:38:10.718Z,-1.30
2018-03-18T20:40:38.259Z,-1.30
2018-03-18T20:43:05.930Z,-1.10
2018-03-18T20:45:33.454Z,-1.50
2018-03-18T20:48:01.453Z,-1.50
2018-03-18T20:50:28.997Z,-1.40
2018-03-18T20:52:57.688Z,-1.50
2018-03-18T20:55:25.335Z,-1.50
2018-03-18T20:57:52.844Z,-1.50
2018-03-18T21:00:20.596Z,-1.60
2018-03-18T21:02:48.107Z,-1.50
2018-03-18T21:05:15.810Z,-1.20
2018-03-18T21:07:43.363Z,-1.30
2018-03-18T21:10:10.873Z,-1.40
2018-03-18T21:12:38.482Z,-1.50
2018-03-18T21:15:06.042Z,-1.40
2018-03-18T21:17:33.549Z,-1.50
2018-03-18T21:20:01.187Z,-1.40
2018-03-18T21:22:29.227Z,-1.50
2018-03-18T21:24:57.269Z,-1.50
2018-03-18T21:27:25.366Z,-1.60
2018-03-18T21:29:52.879Z,-1.50
2018-03-18T21:32:20.397Z,-1.60
2018-03-18T21:34:48.013Z,-1.70
2018-03-18T21:37:15.536Z,-1.60
2018-03-18T21:39:43.247Z,-1.60
2018-03-18T21:42:10.751Z,-1.40
2018-03-18T21:44:38.790Z,-1.40
2018-03-18T21:47:06.888Z,-1.60
2018-03-18T21:49:34.395Z,-1.50
2018-03-18T21:52:03.047Z,-1.60
2018-03-18T21:54:30.979Z,-1.50
2018-03-18T21:56:58.902Z,-1.60
2018-03-18T21:59:26.804Z,-1.70
2018-03-18T22:01:54.336Z,-1.80
2018-03-18T22:04:22.621Z,-1.70
2018-03-18T22:06:50.216Z,1.00
2018-03-18T22:09:17.732Z,1.90
2018-03-18T22:11:45.239Z,3.30
2018-03-18T22:14:12.837Z,2.40
2018-03-18T22:16:40.348Z,0.90
2018-03-18T22:19:08.248Z,0.10
2018-03-18T22:21:36.151Z,-1.00
2018-03-18T22:24:03.705Z,-1.30
2018-03-18T22:26:31.227Z,-1.30
2018-03-18T22:28:59.550Z,-1.40
2018-03-18T22:31:27.122Z,-1.50
2018-03-18T22:33:54.637Z,-1.50
2018-03-18T22:36:22.445Z,-1.50
2018-03-18T22:38:50.115Z,-1.70
2018-03-18T22:41:18.371Z,-1.70
2018-03-18T22:43:46.039Z,-1.60
2018-03-18T22:46:14.113Z,-1.60
2018-03-18T22:48:41.640Z,-1.70
2018-03-18T22:51:09.335Z,-1.80
2018-03-18T22:53:37.104Z,-1.90
2018-03-18T22:56:04.868Z,-1.80
2018-03-18T22:58:33.883Z,-1.80
2018-03-18T23:01:01.400Z,-1.60
2018-03-18T23:03:29.052Z,-1.60
2018-03-18T23:05:57.317Z,-1.70
2018-03-18T23:08:24.912Z,-1.80
2018-03-18T23:10:52.559Z,-1.80
2018-03-18T23:13:20.085Z,-1.80
2018-03-18T23:15:47.883Z,-1.80
2018-03-18T23:18:15.416Z,-1.60
2018-03-18T23:20:43.255Z,-1.80
2018-03-18T23:23:11.703Z,-1.90
2018-03-18T23:25:39.552Z,-1.80
2018-03-18T23:28:07.649Z,-1.80
2018-03-18T23:30:35.727Z,-1.90
2018-03-18T23:33:04.007Z,-2.00
2018-03-18T23:35:31.716Z,-2.00
2018-03-18T23:37:59.241Z,-2.00
2018-03-18T23:40:26.748Z,-1.90
2018-03-18T23:42:54.819Z,-2.10
2018-03-18T23:45:22.322Z,-1.90
2018-03-18T23:47:49.836Z,-2.00
2018-03-18T23:50:18.117Z,-1.80
2018-03-18T23:52:45.831Z,-2.00
2018-03-18T23:55:14.092Z,-2.00
2018-03-18T23:57:42.353Z,-2.00
